Time;durP1;ratioP1;P1;durP2;ratioP2;P2;SDS_P1;SDS_P2;PMS_P1;PMS_P2;Temp;Humidity;BMP_temperature;BMP_pressure;BME280_temperature;BME280_humidity;BME280_pressure;Samples;Min_cycle;Max_cycle;Signal;HPM_P1;HPM_P2
2021/04/15 00:01:14;;;;;;;3.80;3.35;;;5.30;83.40;;;;;;5072510;28;20699;-49
2021/04/15 00:03:41;;;;;;;5.13;2.30;;;5.40;83.60;;;;;;5072936;28;20587;-49
2021/04/15 00:06:13;;;;;;;4.25;2.40;;;5.30;83.70;;;;;;5073357;28;20202;-49
2021/04/15 00:08:40;;;;;;;4.13;2.20;;;5.50;83.40;;;;;;5073046;28;20230;-48
2021/04/15 00:11:06;;;;;;;2.67;2.10;;;5.30;84.90;;;;;;5072610;28;20718;-49
2021/04/15 00:13:36;;;;;;;6.45;2.22;;;4.90;83.90;;;;;;5072872;28;20919;-49
2021/04/15 00:16:03;;;;;;;6.18;2.55;;;5.30;84.50;;;;;;5072417;28;20199;-48
2021/04/15 00:18:29;;;;;;;3.03;1.95;;;5.30;84.40;;;;;;5072215;28;20194;-49
2021/04/15 00:20:56;;;;;;;2.35;2.05;;;5.40;84.70;;;;;;5072684;28;20219;-50
2021/04/15 00:23:23;;;;;;;3.33;2.45;;;5.20;83.90;;;;;;5073181;28;20201;-49
2021/04/15 00:25:50;;;;;;;2.88;2.10;;;5.10;84.40;;;;;;5074111;28;20258;-49
2021/04/15 00:28:16;;;;;;;3.95;1.80;;;5.20;84.70;;;;;;5075140;28;20215;-49
2021/04/15 00:30:43;;;;;;;6.32;2.20;;;5.20;84.70;;;;;;5075869;28;20253;-49
2021/04/15 00:33:11;;;;;;;3.90;2.10;;;5.40;85.10;;;;;;5075770;28;20203;-49
2021/04/15 00:35:39;;;;;;;3.00;1.80;;;5.30;85.20;;;;;;5076346;28;20702;-49
2021/04/15 00:38:06;;;;;;;5.15;2.13;;;5.40;85.50;;;;;;5076248;28;20191;-49
2021/04/15 00:40:35;;;;;;;3.88;2.05;;;5.20;85.60;;;;;;5074782;28;20659;-49
2021/04/15 00:43:02;;;;;;;3.38;2.15;;;5.20;85.20;;;;;;5075678;28;20591;-50
2021/04/15 00:45:31;;;;;;;5.50;1.95;;;5.00;85.90;;;;;;5075893;28;20191;-49
2021/04/15 00:48:03;;;;;;;3.83;2.22;;;5.20;85.60;;;;;;5076347;28;20215;-49
2021/04/15 00:50:33;;;;;;;2.50;1.60;;;5.00;85.60;;;;;;5075677;28;20250;-50
2021/04/15 00:53:03;;;;;;;3.35;1.73;;;4.90;86.30;;;;;;5074049;28;20210;-49
2021/04/15 00:55:34;;;;;;;3.03;1.98;;;5.00;86.70;;;;;;5075908;28;20191;-50
2021/04/15 00:58:02;;;;;;;3.55;2.03;;;4.90;86.60;;;;;;5075949;28;20188;-50
2021/04/15 01:00:30;;;;;;;3.58;2.05;;;5.20;86.50;;;;;;5076022;28;20566;-50
2021/04/15 01:02:58;;;;;;;3.85;1.92;;;5.00;87.40;;;;;;5075319;28;20222;-49
2021/04/15 01:05:29;;;;;;;2.65;1.90;;;5.10;87.80;;;;;;5075689;28;20195;-49
2021/04/15 01:07:55;;;;;;;3.95;1.88;;;4.90;87.70;;;;;;5075419;28;20624;-50
2021/04/15 01:10:23;;;;;;;2.63;1.60;;;4.90;88.40;;;;;;5075573;28;20318;-49
2021/04/15 01:13:02;;;;;;;2.35;1.75;;;4.80;88.30;;;;;;5075222;28;20210;-49
2021/04/15 01:15:43;;;;;;;2.95;1.70;;;5.00;88.70;;;;;;5075548;28;20575;-48
2021/04/15 01:18:15;;;;;;;2.50;2.00;;;5.00;89.10;;;;;;5075398;28;20199;-49
2021/04/15 01:21:22;;;;;;;3.30;1.70;;;4.80;89.00;;;;;;5076065;28;20206;-49
2021/04/15 01:23:53;;;;;;;5.38;2.00;;;4.80;89.40;;;;;;5075326;28;20203;-49
2021/04/15 01:26:57;;;;;;;3.58;1.90;;;5.00;89.80;;;;;;5074251;28;20237;-49
2021/04/15 01:29:32;;;;;;;4.10;2.10;;;4.90;89.70;;;;;;5075532;28;20187;-49
2021/04/15 01:32:04;;;;;;;3.25;1.80;;;4.50;90.10;;;;;;5075086;28;20707;-49
2021/04/15 01:34:39;;;;;;;3.03;2.22;;;4.30;90.20;;;;;;5074794;28;20195;-49
2021/04/15 01:37:14;;;;;;;3.50;2.40;;;4.70;90.50;;;;;;5075341;28;20198;-49
2021/04/15 01:39:44;;;;;;;4.40;2.10;;;4.70;90.60;;;;;;5076238;28;20191;-49
2021/04/15 01:42:16;;;;;;;2.55;2.08;;;4.70;90.70;;;;;;5076529;28;20203;-49
2021/04/15 01:44:47;;;;;;;3.70;2.38;;;4.10;90.60;;;;;;5075054;28;20202;-50
2021/04/15 01:47:19;;;;;;;3.67;2.05;;;4.60;90.50;;;;;;5074549;28;20211;-50
2021/04/15 01:49:51;;;;;;;4.50;2.30;;;4.60;91.10;;;;;;5074928;28;20585;-50
2021/04/15 01:52:18;;;;;;;3.55;1.90;;;4.90;91.10;;;;;;5074569;28;20195;-50
2021/04/15 01:54:51;;;;;;;4.38;2.53;;;4.70;91.30;;;;;;5074727;28;20253;-50
2021/04/15 01:57:23;;;;;;;2.88;2.20;;;4.60;91.40;;;;;;5075010;28;20543;-50
2021/04/15 01:59:57;;;;;;;4.65;2.30;;;4.60;91.40;;;;;;5074317;28;20195;-50
2021/04/15 02:02:27;;;;;;;3.17;1.70;;;4.60;91.50;;;;;;5073739;28;20197;-50
2021/04/15 02:04:57;;;;;;;2.55;1.80;;;4.40;91.50;;;;;;5074558;28;20204;-50
2021/04/15 02:07:24;;;;;;;4.88;2.45;;;4.40;91.00;;;;;;5074174;28;20215;-50
2021/04/15 02:09:52;;;;;;;2.70;2.22;;;4.50;91.60;;;;;;5074043;28;20191;-50
2021/04/15 02:12:23;;;;;;;3.47;2.03;;;4.90;91.90;;;;;;5073970;28;20195;-49
2021/04/15 02:15:00;;;;;;;3.45;2.00;;;4.50;91.80;;;;;;5074139;28;20726;-49
2021/04/15 02:17:30;;;;;;;3.05;2.65;;;4.40;91.90;;;;;;5074797;28;20215;-49
2021/04/15 02:19:59;;;;;;;2.80;2.45;;;4.30;91.90;;;;;;5074846;28;20219;-50
2021/04/15 02:22:31;;;;;;;5.05;2.53;;;4.50;92.10;;;;;;5074105;28;20202;-50
2021/04/15 02:25:03;;;;;;;5.75;2.65;;;4.40;92.40;;;;;;5074157;28;20228;-49
2021/04/15 02:27:36;;;;;;;2.60;2.03;;;4.50;92.60;;;;;;5072708;28;20653;-48
2021/04/15 02:30:12;;;;;;;3.85;1.73;;;4.00;92.60;;;;;;5072896;28;20242;-49
2021/04/15 02:32:43;;;;;;;3.15;2.20;;;4.40;93.20;;;;;;5074042;28;20206;-49
2021/04/15 02:35:14;;;;;;;5.03;2.50;;;3.70;93.00;;;;;;5073867;28;20291;-50
2021/04/15 02:37:45;;;;;;;4.50;2.80;;;4.40;93.70;;;;;;5073484;28;20227;-48
2021/04/15 02:40:17;;;;;;;7.07;2.92;;;4.20;93.80;;;;;;5073564;28;20575;-49
2021/04/15 02:42:45;;;;;;;3.17;2.22;;;3.90;94.30;;;;;;5073682;28;20200;-50
2021/04/15 02:45:22;;;;;;;4.47;2.30;;;4.40;95.00;;;;;;5073417;28;20196;-49
2021/04/15 02:47:53;;;;;;;4.95;2.83;;;4.00;94.60;;;;;;5071478;28;20606;-49
2021/04/15 02:50:22;;;;;;;6.70;3.20;;;4.10;95.30;;;;;;5073752;28;20227;-49
2021/04/15 02:52:55;;;;;;;5.82;2.90;;;4.00;95.70;;;;;;5073499;28;20665;-49
2021/04/15 02:55:24;;;;;;;4.63;3.47;;;4.20;95.90;;;;;;5074133;28;20656;-49
2021/04/15 02:57:55;;;;;;;5.45;3.35;;;4.10;95.80;;;;;;5075578;28;20261;-49
2021/04/15 03:00:25;;;;;;;5.47;2.45;;;4.10;95.90;;;;;;5075313;28;20211;-49
2021/04/15 03:03:02;;;;;;;4.18;2.83;;;4.20;96.50;;;;;;5075177;28;20253;-50
2021/04/15 03:05:33;;;;;;;7.43;3.53;;;3.80;96.90;;;;;;5075062;28;20234;-50
2021/04/15 03:08:00;;;;;;;4.65;2.97;;;4.00;97.10;;;;;;5074568;28;20254;-50
2021/04/15 03:10:30;;;;;;;6.80;2.78;;;4.10;97.50;;;;;;5075227;28;20238;-50
2021/04/15 03:13:05;;;;;;;6.25;3.13;;;3.60;97.60;;;;;;5074847;28;20234;-49
2021/04/15 03:15:38;;;;;;;7.85;3.20;;;4.10;97.90;;;;;;5073238;28;20179;-50
2021/04/15 03:18:11;;;;;;;8.43;3.50;;;3.80;97.90;;;;;;5072983;28;20194;-50
2021/04/15 03:20:43;;;;;;;7.05;3.30;;;4.10;98.50;;;;;;5072445;28;20223;-50
2021/04/15 03:23:18;;;;;;;5.50;3.38;;;4.00;98.50;;;;;;5072595;28;20659;-50
2021/04/15 03:25:44;;;;;;;6.30;3.60;;;3.90;98.50;;;;;;5072675;28;20222;-50
2021/04/15 03:28:16;;;;;;;6.90;3.80;;;3.80;98.50;;;;;;5072587;28;20230;-49
2021/04/15 03:30:50;;;;;;;4.60;3.08;;;3.30;98.30;;;;;;5072640;28;20735;-49
2021/04/15 03:33:20;;;;;;;11.15;4.95;;;4.00;98.80;;;;;;5072352;28;20202;-50
2021/04/15 03:35:53;;;;;;;8.82;3.55;;;4.00;99.00;;;;;;5072851;28;20199;-50
2021/04/15 03:38:24;;;;;;;7.40;3.30;;;3.90;99.50;;;;;;5072648;28;20660;-50
2021/04/15 03:40:55;;;;;;;9.38;3.00;;;3.60;99.50;;;;;;5072393;28;20718;-50
2021/04/15 03:43:25;;;;;;;6.30;3.72;;;3.90;99.70;;;;;;5072075;28;20639;-50
2021/04/15 03:46:00;;;;;;;5.38;3.30;;;3.40;99.20;;;;;;5072249;28;20305;-50
2021/04/15 03:48:32;;;;;;;5.15;4.25;;;3.60;99.80;;;;;;5072510;28;20700;-49
2021/04/15 03:51:06;;;;;;;8.30;4.30;;;4.00;99.90;;;;;;5072333;28;20218;-49
2021/04/15 03:53:41;;;;;;;4.75;3.58;;;3.80;99.90;;;;;;5072496;28;20199;-50
2021/04/15 03:56:25;;;;;;;10.32;3.45;;;3.30;99.90;;;;;;5072445;28;20186;-49
2021/04/15 03:58:57;;;;;;;8.98;3.70;;;3.60;99.90;;;;;;5070914;28;20281;-49
2021/04/15 04:01:28;;;;;;;10.95;3.45;;;3.80;99.90;;;;;;5073341;28;20230;-48
2021/04/15 04:04:04;;;;;;;7.68;3.20;;;3.70;99.90;;;;;;5075074;28;20217;-49
2021/04/15 04:06:34;;;;;;;17.48;4.25;;;3.90;99.90;;;;;;5076254;28;20195;-49
2021/04/15 04:09:03;;;;;;;5.38;3.05;;;3.80;99.90;;;;;;5076145;28;20234;-49
2021/04/15 04:11:34;;;;;;;8.48;3.70;;;4.00;99.90;;;;;;5076000;28;20577;-49
2021/04/15 04:14:03;;;;;;;6.47;3.60;;;3.90;99.90;;;;;;5076362;28;20682;-50
2021/04/15 04:16:35;;;;;;;8.35;4.80;;;3.60;99.90;;;;;;5076585;28;20257;-50
2021/04/15 04:19:06;;;;;;;5.10;3.90;;;3.30;99.90;;;;;;5076815;28;20202;-50
2021/04/15 04:21:42;;;;;;;8.50;4.22;;;3.80;99.90;;;;;;5076573;28;20631;-49
2021/04/15 04:24:14;;;;;;;6.88;4.03;;;3.60;99.90;;;;;;5077027;28;20227;-50
2021/04/15 04:26:47;;;;;;;9.65;3.97;;;4.10;99.90;;;;;;5074999;28;20271;-50
2021/04/15 04:29:25;;;;;;;6.30;3.90;;;4.00;99.90;;;;;;5075872;28;20226;-49
2021/04/15 04:31:57;;;;;;;7.65;4.47;;;3.90;99.90;;;;;;5075466;28;20223;-49
2021/04/15 04:34:25;;;;;;;7.85;4.10;;;3.90;99.90;;;;;;5075431;28;20229;-50
2021/04/15 04:36:53;;;;;;;8.75;4.72;;;3.80;99.90;;;;;;5075178;28;20247;-49
2021/04/15 04:39:22;;;;;;;5.38;4.00;;;4.00;99.90;;;;;;5075501;28;20188;-49
2021/04/15 04:42:02;;;;;;;7.55;4.30;;;4.20;99.90;;;;;;5075326;28;20219;-49
2021/04/15 04:44:37;;;;;;;10.18;4.95;;;3.80;99.90;;;;;;5075189;28;20248;-49
2021/04/15 04:47:11;;;;;;;11.93;4.20;;;3.30;99.90;;;;;;5075452;28;20214;-49
2021/04/15 04:49:41;;;;;;;5.72;4.25;;;3.80;99.90;;;;;;5075011;28;20253;-49
2021/04/15 04:52:11;;;;;;;7.05;4.53;;;4.10;99.90;;;;;;5099764;22;20651;-45
2021/04/15 04:54:40;;;;;;;11.02;4.30;;;4.20;99.90;;;;;;5073699;28;20203;-47
2021/04/15 04:57:13;;;;;;;9.52;5.45;;;3.90;99.90;;;;;;5073951;28;20191;-45
2021/04/15 04:59:44;;;;;;;10.07;4.18;;;4.10;99.90;;;;;;5073717;28;20242;-45
2021/04/15 05:02:13;;;;;;;6.68;3.95;;;3.90;99.90;;;;;;5073773;28;20211;-45
2021/04/15 05:04:39;;;;;;;5.93;4.15;;;3.90;99.90;;;;;;5073820;28;20195;-45
2021/04/15 05:07:10;;;;;;;10.95;5.05;;;3.90;99.90;;;;;;5073859;28;20215;-45
2021/04/15 05:09:39;;;;;;;5.45;4.40;;;4.20;99.90;;;;;;5074015;28;20489;-47
2021/04/15 05:12:08;;;;;;;7.95;5.28;;;3.90;99.90;;;;;;5072896;28;20594;-46
2021/04/15 05:14:35;;;;;;;7.72;4.00;;;4.10;99.90;;;;;;5072409;28;20616;-46
2021/04/15 05:17:04;;;;;;;7.53;4.00;;;4.00;99.90;;;;;;5073514;28;20199;-45
2021/04/15 05:19:34;;;;;;;9.57;4.40;;;3.90;99.90;;;;;;5074085;28;20276;-46
2021/04/15 05:22:04;;;;;;;11.57;5.32;;;4.00;99.90;;;;;;5075406;28;20230;-47
2021/04/15 05:24:35;;;;;;;7.70;4.97;;;3.80;99.90;;;;;;5055569;28;20204;-46
2021/04/15 05:27:03;;;;;;;8.15;4.80;;;4.00;99.90;;;;;;5072621;28;20219;-45
2021/04/15 05:29:33;;;;;;;11.98;4.82;;;4.30;99.90;;;;;;5073827;28;20263;-45
2021/04/15 05:32:00;;;;;;;12.45;5.10;;;4.40;99.90;;;;;;5073594;28;20583;-46
2021/04/15 05:34:30;;;;;;;8.57;4.45;;;4.30;99.90;;;;;;5072791;28;20188;-45
2021/04/15 05:37:00;;;;;;;11.45;5.28;;;4.30;99.90;;;;;;5073433;28;20540;-45
2021/04/15 05:39:26;;;;;;;6.90;4.47;;;4.30;99.90;;;;;;5073577;28;20203;-45
2021/04/15 05:42:04;;;;;;;8.38;5.25;;;4.20;99.90;;;;;;5073551;28;20691;-46
2021/04/15 05:44:37;;;;;;;7.75;4.70;;;3.90;99.90;;;;;;5073372;28;20539;-46
2021/04/15 05:47:09;;;;;;;9.00;5.07;;;4.50;99.90;;;;;;5073361;28;20664;-46
2021/04/15 05:49:39;;;;;;;10.63;4.25;;;4.30;99.90;;;;;;5073147;28;20621;-45
2021/04/15 05:52:11;;;;;;;5.82;4.10;;;4.60;99.90;;;;;;5073161;28;20299;-47
2021/04/15 05:54:40;;;;;;;9.65;4.70;;;4.70;99.90;;;;;;5072909;28;20199;-45
2021/04/15 05:57:10;;;;;;;6.30;4.55;;;4.60;99.90;;;;;;5072981;28;20194;-46
2021/04/15 05:59:51;;;;;;;6.00;3.80;;;4.60;99.90;;;;;;5072975;28;20557;-46
2021/04/15 06:02:29;;;;;;;9.15;5.05;;;4.60;99.90;;;;;;5073030;28;20223;-46
2021/04/15 06:04:59;;;;;;;5.15;3.65;;;4.60;99.90;;;;;;5073294;28;20221;-45
2021/04/15 06:07:27;;;;;;;7.15;4.10;;;4.60;99.90;;;;;;5073026;28;20647;-48
2021/04/15 06:09:54;;;;;;;8.77;4.15;;;5.00;99.90;;;;;;5073198;28;20197;-46
2021/04/15 06:12:32;;;;;;;11.60;4.22;;;5.00;99.90;;;;;;5072357;28;20317;-45
2021/04/15 06:15:03;;;;;;;5.97;3.38;;;4.80;99.90;;;;;;5072635;28;20223;-46
2021/04/15 06:17:32;;;;;;;8.07;3.70;;;4.90;99.90;;;;;;5072786;28;20188;-46
2021/04/15 06:20:05;;;;;;;8.52;3.80;;;4.40;99.90;;;;;;5072035;28;20624;-46
2021/04/15 06:22:36;;;;;;;7.30;3.78;;;5.10;99.90;;;;;;5072367;28;20562;-45
2021/04/15 06:25:07;;;;;;;9.90;4.03;;;5.10;99.90;;;;;;5071858;28;20191;-46
2021/04/15 06:27:36;;;;;;;9.68;4.53;;;4.80;99.90;;;;;;5070751;28;20242;-46
2021/04/15 06:30:08;;;;;;;8.77;4.30;;;5.10;99.90;;;;;;5071099;28;20203;-46
2021/04/15 06:32:39;;;;;;;6.47;4.05;;;5.30;99.90;;;;;;5072095;28;20207;-46
2021/04/15 06:35:10;;;;;;;12.07;4.80;;;5.00;99.90;;;;;;5072126;28;20241;-46
2021/04/15 06:37:42;;;;;;;6.95;4.40;;;5.20;99.90;;;;;;5072274;28;20685;-47
2021/04/15 06:40:45;;;;;;;8.90;3.92;;;5.30;99.90;;;;;;5071880;28;20206;-46
2021/04/15 06:43:24;;;;;;;8.93;4.53;;;5.30;99.90;;;;;;5071486;28;20202;-47
2021/04/15 06:46:07;;;;;;;8.25;4.38;;;4.60;99.90;;;;;;5072374;28;20806;-46
2021/04/15 06:49:04;;;;;;;9.68;3.80;;;5.60;99.90;;;;;;5072159;28;20248;-46
2021/04/15 06:51:48;;;;;;;7.88;3.50;;;5.50;99.90;;;;;;5072303;28;20226;-46
2021/04/15 06:54:36;;;;;;;4.85;3.20;;;5.50;99.90;;;;;;5071784;28;20186;-46
2021/04/15 06:57:42;;;;;;;3.90;3.08;;;5.40;99.80;;;;;;5072062;28;20281;-46
2021/04/15 07:01:08;;;;;;;10.05;4.38;;;5.70;99.80;;;;;;5065234;28;20294;-46
2021/04/15 07:03:56;;;;;;;5.80;3.63;;;5.60;99.40;;;;;;4932301;29;20200;-46
2021/04/15 07:06:47;;;;;;;6.30;3.40;;;6.00;99.50;;;;;;5063345;28;20203;-46
2021/04/15 07:09:46;;;;;;;6.40;3.58;;;5.50;99.00;;;;;;5071954;28;20472;-46
2021/04/15 07:12:34;;;;;;;7.05;3.78;;;6.10;99.10;;;;;;5071943;28;20215;-46
2021/04/15 07:15:04;;;;;;;5.57;3.43;;;5.90;98.80;;;;;;5070657;28;20564;-46
2021/04/15 07:18:02;;;;;;;6.00;2.80;;;6.10;98.80;;;;;;5071359;28;20452;-46
2021/04/15 07:21:02;;;;;;;7.53;3.10;;;6.00;98.10;;;;;;5071630;28;20218;-46
2021/04/15 07:24:10;;;;;;;8.35;3.50;;;6.40;98.20;;;;;;5071116;28;20699;-46
2021/04/15 07:26:52;;;;;;;7.97;3.00;;;6.40;98.40;;;;;;5069990;28;20222;-47
2021/04/15 07:29:49;;;;;;;5.50;2.38;;;6.60;98.00;;;;;;5069888;28;20485;-45
2021/04/15 07:32:49;;;;;;;8.23;3.60;;;6.80;97.60;;;;;;5070817;28;20314;-46
2021/04/15 07:35:25;;;;;;;5.03;2.50;;;6.80;97.10;;;;;;5070571;28;20619;-49
2021/04/15 07:38:27;;;;;;;5.93;2.97;;;6.50;96.90;;;;;;5070878;28;20195;-46
2021/04/15 07:41:22;;;;;;;4.43;2.57;;;6.70;96.50;;;;;;5072028;28;20843;-45
2021/04/15 07:44:19;;;;;;;5.23;2.83;;;6.90;96.20;;;;;;5041841;28;20474;-47
2021/04/15 07:46:56;;;;;;;7.87;2.87;;;6.40;95.20;;;;;;5070887;28;20507;-47
2021/04/15 07:50:04;;;;;;;3.17;2.50;;;6.90;95.50;;;;;;5070861;28;20484;-45
2021/04/15 07:56:42;;;;;;;3.37;1.93;;;7.20;95.00;;;;;;5071244;28;20398;-47
2021/04/15 07:59:43;;;;;;;2.70;1.90;;;7.10;94.30;;;;;;5071796;28;20422;-45
2021/04/15 08:06:10;;;;;;;4.47;2.27;;;7.60;93.20;;;;;;5070751;28;20393;-46
2021/04/15 08:09:20;;;;;;;2.80;1.60;;;7.50;93.10;;;;;;5071204;28;20861;-46
2021/04/15 08:12:14;;;;;;;4.77;2.27;;;7.50;92.30;;;;;;5071288;28;20520;-44
2021/04/15 08:14:54;;;;;;;2.80;1.80;;;7.60;92.40;;;;;;5071403;28;20537;-45
2021/04/15 08:17:38;;;;;;;5.03;2.57;;;7.50;92.00;;;;;;5070448;28;20477;-43
2021/04/15 08:20:29;;;;;;;5.77;1.70;;;7.40;91.90;;;;;;5071476;28;20434;-46
2021/04/15 08:23:23;;;;;;;6.20;2.20;;;7.60;91.60;;;;;;5070872;28;20435;-45
2021/04/15 08:26:13;;;;;;;8.50;2.00;;;7.40;91.00;;;;;;5062986;28;20895;-44
2021/04/15 08:28:56;;;;;;;4.30;1.77;;;7.50;91.10;;;;;;5071804;28;20579;-45
2021/04/15 08:31:31;;;;;;;3.93;2.20;;;8.00;89.80;;;;;;5071144;28;20538;-45
2021/04/15 08:34:09;;;;;;;3.60;1.50;;;8.10;89.00;;;;;;5070814;28;20518;-44
2021/04/15 08:36:51;;;;;;;3.43;1.90;;;7.70;87.70;;;;;;5071096;28;20517;-46
2021/04/15 08:39:30;;;;;;;3.20;1.67;;;7.90;88.30;;;;;;5070861;28;20459;-45
2021/04/15 08:42:07;;;;;;;2.43;1.50;;;8.00;86.50;;;;;;5070396;28;20455;-45
2021/04/15 08:44:53;;;;;;;3.90;1.93;;;7.90;83.90;;;;;;5070427;28;20583;-45
2021/04/15 08:47:32;;;;;;;2.97;1.23;;;8.40;83.10;;;;;;5072079;28;20438;-45
2021/04/15 08:50:08;;;;;;;2.87;1.20;;;8.40;81.10;;;;;;5074798;28;20518;-45
2021/04/15 08:52:40;;;;;;;2.63;1.20;;;8.30;79.70;;;;;;5074692;28;20525;-45
2021/04/15 08:55:27;;;;;;;1.90;1.10;;;8.50;79.40;;;;;;5074770;28;20464;-46
2021/04/15 08:58:28;;;;;;;3.73;1.20;;;8.30;78.60;;;;;;5074708;28;20434;-45
2021/04/15 09:01:01;;;;;;;7.87;1.63;;;8.60;78.90;;;;;;5027877;28;20503;-45
2021/04/15 09:03:34;;;;;;;3.53;1.60;;;8.70;77.60;;;;;;5074138;28;20440;-45
2021/04/15 09:06:11;;;;;;;3.77;1.30;;;9.40;77.60;;;;;;5074631;28;20429;-44
2021/04/15 09:08:47;;;;;;;3.10;1.17;;;8.90;74.30;;;;;;5074300;28;20570;-44
2021/04/15 09:11:19;;;;;;;2.83;1.00;;;8.80;74.10;;;;;;5073974;28;20445;-45
2021/04/15 09:13:55;;;;;;;5.73;1.20;;;9.10;73.20;;;;;;5073777;28;20948;-46
2021/04/15 09:16:35;;;;;;;1.27;0.90;;;8.80;70.40;;;;;;5072430;28;20759;-45
2021/04/15 09:19:11;;;;;;;2.20;1.33;;;8.80;66.00;;;;;;5073791;28;20618;-45
2021/04/15 09:21:47;;;;;;;2.03;0.80;;;9.30;66.20;;;;;;5072033;28;20911;-45
2021/04/15 09:24:21;;;;;;;1.67;1.10;;;9.10;62.40;;;;;;5073107;28;20520;-45
2021/04/15 09:27:20;;;;;;;2.43;1.00;;;9.10;59.60;;;;;;5073776;28;20576;-44
2021/04/15 09:29:56;;;;;;;1.20;0.70;;;8.80;58.80;;;;;;5068453;28;20511;-45
2021/04/15 09:32:41;;;;;;;2.97;1.40;;;9.10;59.30;;;;;;5073060;28;20429;-45
2021/04/15 09:35:21;;;;;;;3.67;0.90;;;9.10;59.10;;;;;;5074058;28;20535;-44
2021/04/15 09:38:31;;;;;;;4.07;1.00;;;9.10;58.80;;;;;;5073593;28;20458;-46
2021/04/15 09:41:20;;;;;;;4.10;1.10;;;9.30;58.30;;;;;;5073746;28;20459;-45
2021/04/15 09:44:06;;;;;;;1.50;0.90;;;9.30;58.30;;;;;;5072472;28;20466;-46
2021/04/15 09:46:40;;;;;;;1.43;1.20;;;9.20;56.90;;;;;;5071344;28;20503;-45
2021/04/15 09:49:20;;;;;;;2.20;0.83;;;8.60;55.00;;;;;;5071824;28;20509;-46
2021/04/15 09:52:02;;;;;;;1.43;0.97;;;9.10;55.50;;;;;;5072349;28;20465;-45
2021/04/15 09:54:42;;;;;;;1.93;0.90;;;8.80;55.60;;;;;;5071724;28;20596;-46
2021/04/15 09:57:21;;;;;;;1.67;0.80;;;9.30;55.90;;;;;;5071796;28;20425;-47
2021/04/15 10:00:06;;;;;;;2.03;1.33;;;9.40;55.90;;;;;;5070727;28;20977;-46
2021/04/15 10:02:41;;;;;;;2.23;1.00;;;9.40;55.60;;;;;;5071117;28;20444;-46
2021/04/15 10:05:13;;;;;;;1.17;0.70;;;9.00;55.30;;;;;;5071311;28;21012;-46
2021/04/15 10:07:46;;;;;;;2.47;0.90;;;9.50;54.50;;;;;;5070222;28;20446;-46
2021/04/15 10:10:20;;;;;;;1.40;0.83;;;9.90;54.20;;;;;;5071374;28;20517;-46
2021/04/15 10:12:57;;;;;;;2.83;0.83;;;9.90;53.80;;;;;;5071464;28;20433;-46
2021/04/15 10:15:41;;;;;;;3.30;1.47;;;10.10;51.60;;;;;;5071538;28;20433;-46
2021/04/15 10:18:14;;;;;;;4.80;1.00;;;10.10;50.70;;;;;;5071731;28;20964;-46
2021/04/15 10:20:55;;;;;;;2.50;1.47;;;9.60;51.60;;;;;;5071413;28;20453;-46
2021/04/15 10:23:57;;;;;;;2.33;0.70;;;9.70;52.10;;;;;;5071084;28;20483;-46
2021/04/15 10:27:09;;;;;;;3.63;0.83;;;9.40;52.20;;;;;;5066252;28;20449;-46
2021/04/15 10:30:12;;;;;;;1.20;0.70;;;9.70;52.80;;;;;;5071522;28;20504;-47
2021/04/15 10:32:54;;;;;;;2.40;0.87;;;9.60;52.80;;;;;;5070958;28;20434;-46
2021/04/15 10:35:43;;;;;;;3.53;1.30;;;9.20;53.10;;;;;;5071571;28;20783;-46
2021/04/15 10:38:40;;;;;;;1.50;0.83;;;8.80;53.30;;;;;;5071315;28;20433;-46
2021/04/15 10:41:41;;;;;;;1.80;0.97;;;9.30;53.50;;;;;;5069550;28;20566;-47
2021/04/15 10:44:24;;;;;;;1.93;0.80;;;9.40;53.90;;;;;;5036519;28;20554;-47
2021/04/15 10:47:01;;;;;;;1.73;0.90;;;9.60;54.20;;;;;;5070638;28;20436;-47
2021/04/15 10:49:40;;;;;;;2.33;0.80;;;8.90;53.90;;;;;;5070203;28;20473;-46
2021/04/15 10:52:20;;;;;;;4.30;1.40;;;9.10;54.40;;;;;;5067561;22;558491;-48
2021/04/15 10:54:46;;;;;;;2.47;1.03;;;9.50;55.00;;;;;;5072536;28;20256;-48
2021/04/15 10:57:16;;;;;;;1.87;0.90;;;8.70;54.40;;;;;;5072623;28;20860;-49
2021/04/15 10:59:45;;;;;;;2.10;0.90;;;8.90;55.00;;;;;;5071951;28;20922;-48
2021/04/15 11:02:34;;;;;;;4.80;1.00;;;9.30;55.50;;;;;;5072557;28;20455;-47
2021/04/15 11:05:20;;;;;;;1.40;0.90;;;9.20;55.30;;;;;;5073595;28;20430;-49
2021/04/15 11:07:48;;;;;;;1.60;1.00;;;9.10;55.20;;;;;;5072879;28;20429;-49
2021/04/15 11:10:33;;;;;;;1.80;0.90;;;9.30;55.40;;;;;;5071886;28;20869;-49
2021/04/15 11:13:07;;;;;;;2.37;1.00;;;9.50;55.40;;;;;;5071727;28;20453;-49
2021/04/15 11:15:40;;;;;;;1.30;0.80;;;9.60;55.50;;;;;;5072203;28;20429;-49
2021/04/15 11:18:09;;;;;;;1.87;0.90;;;9.60;56.20;;;;;;5071793;28;20432;-49
2021/04/15 11:20:40;;;;;;;2.80;1.07;;;9.50;56.10;;;;;;5072473;28;20449;-50
2021/04/15 11:23:26;;;;;;;1.30;0.70;;;9.70;56.60;;;;;;5070173;28;20466;-48
2021/04/15 11:25:53;;;;;;;1.63;0.80;;;9.50;56.30;;;;;;5072065;28;20426;-48
2021/04/15 11:28:31;;;;;;;1.93;1.23;;;9.40;56.20;;;;;;5071471;28;20480;-49
2021/04/15 11:30:59;;;;;;;1.90;1.00;;;9.60;56.50;;;;;;5071251;28;20454;-48
2021/04/15 11:33:36;;;;;;;3.87;0.90;;;9.20;56.30;;;;;;5070800;28;20430;-49
2021/04/15 11:36:10;;;;;;;2.93;1.13;;;9.10;57.40;;;;;;5071356;28;20448;-49
2021/04/15 11:38:37;;;;;;;2.77;1.20;;;9.60;58.70;;;;;;5071383;28;20438;-50
2021/04/15 11:41:14;;;;;;;1.73;0.80;;;9.40;58.80;;;;;;5071843;28;20537;-49
2021/04/15 11:43:41;;;;;;;2.67;1.23;;;9.30;59.30;;;;;;5070008;28;20945;-48
2021/04/15 11:46:20;;;;;;;1.20;0.70;;;9.60;59.70;;;;;;5071476;28;20487;-49
2021/04/15 11:49:03;;;;;;;1.67;1.30;;;9.40;59.30;;;;;;5071540;28;20481;-47
2021/04/15 11:51:39;;;;;;;3.67;1.83;;;9.30;60.00;;;;;;5071466;28;20461;-49
2021/04/15 11:54:12;;;;;;;1.77;0.80;;;9.60;60.00;;;;;;5071362;28;20460;-48
2021/04/15 11:56:42;;;;;;;1.77;1.00;;;9.50;59.10;;;;;;5071210;28;20453;-49
2021/04/15 11:59:19;;;;;;;3.57;1.23;;;9.80;58.60;;;;;;5071223;28;20426;-49
2021/04/15 12:01:46;;;;;;;2.17;1.43;;;9.40;58.70;;;;;;5071323;28;20457;-49
2021/04/15 12:04:22;;;;;;;2.90;1.13;;;9.20;59.30;;;;;;5071286;28;20445;-49
2021/04/15 12:06:55;;;;;;;3.43;1.50;;;9.20;60.10;;;;;;5070678;28;20440;-49
2021/04/15 12:09:27;;;;;;;3.30;1.30;;;9.40;59.50;;;;;;5071420;28;20483;-47
2021/04/15 12:12:04;;;;;;;1.30;0.90;;;8.80;59.20;;;;;;5072522;28;20507;-48
2021/04/15 12:14:34;;;;;;;3.13;1.23;;;9.30;58.70;;;;;;5070702;28;20884;-47
2021/04/15 12:17:06;;;;;;;2.27;1.03;;;9.30;58.20;;;;;;5072407;28;20437;-47
2021/04/15 12:19:46;;;;;;;3.70;1.10;;;9.60;58.60;;;;;;5071673;28;20633;-46
2021/04/15 12:22:19;;;;;;;2.23;1.07;;;9.20;58.30;;;;;;5071763;28;20449;-48
2021/04/15 12:24:49;;;;;;;2.60;0.90;;;9.20;57.60;;;;;;5075066;28;20433;-47
2021/04/15 12:27:20;;;;;;;2.53;0.90;;;9.50;58.60;;;;;;5074455;28;20429;-48
2021/04/15 12:29:52;;;;;;;2.80;1.10;;;9.20;58.30;;;;;;5074523;28;20492;-47
2021/04/15 12:32:29;;;;;;;2.40;1.00;;;9.10;57.20;;;;;;5073845;28;20480;-48
2021/04/15 12:35:10;;;;;;;2.13;1.00;;;9.60;57.40;;;;;;5074443;28;20571;-49
2021/04/15 12:37:42;;;;;;;2.50;1.07;;;9.60;57.20;;;;;;5074658;28;20446;-47
2021/04/15 12:40:35;;;;;;;3.57;0.90;;;9.50;57.20;;;;;;5074333;28;20414;-47
2021/04/15 12:43:06;;;;;;;1.50;0.90;;;9.70;57.00;;;;;;5066961;28;20894;-47
2021/04/15 12:45:37;;;;;;;5.60;2.00;;;9.10;56.60;;;;;;5074030;28;20474;-49
2021/04/15 12:48:07;;;;;;;2.40;1.10;;;9.40;57.60;;;;;;5073154;28;20441;-47
2021/04/15 12:50:34;;;;;;;3.00;1.37;;;9.50;57.60;;;;;;5072883;28;20465;-48
2021/04/15 12:53:04;;;;;;;2.60;1.17;;;9.70;57.80;;;;;;5073918;28;20465;-47
2021/04/15 12:55:30;;;;;;;3.20;1.60;;;8.70;56.20;;;;;;5072886;28;20438;-47
2021/04/15 12:57:57;;;;;;;5.27;1.13;;;9.70;57.00;;;;;;5073953;28;20445;-48
2021/04/15 13:00:35;;;;;;;7.77;1.20;;;9.30;56.40;;;;;;5074666;28;20491;-47
2021/04/15 13:03:12;;;;;;;2.73;1.10;;;9.40;57.10;;;;;;5074320;28;20461;-47
2021/04/15 13:05:54;;;;;;;1.60;1.13;;;9.30;56.60;;;;;;5074392;28;20425;-48
2021/04/15 13:08:24;;;;;;;3.43;1.13;;;9.90;56.20;;;;;;5073569;28;20493;-47
2021/04/15 13:10:52;;;;;;;2.90;1.00;;;9.50;56.10;;;;;;5073838;28;20445;-47
2021/04/15 13:13:41;;;;;;;3.07;1.13;;;9.40;56.00;;;;;;5073665;28;20469;-47
2021/04/15 13:16:38;;;;;;;2.87;1.10;;;10.10;55.20;;;;;;5074291;28;20453;-48
2021/04/15 13:19:32;;;;;;;3.07;1.07;;;9.70;54.50;;;;;;5074115;28;20480;-48
2021/04/15 13:22:03;;;;;;;2.00;1.20;;;9.60;53.90;;;;;;5073793;28;20453;-48
2021/04/15 13:25:05;;;;;;;4.10;1.03;;;9.90;54.60;;;;;;5073789;28;20452;-47
2021/04/15 13:28:07;;;;;;;3.00;1.00;;;9.60;53.20;;;;;;5073980;28;20952;-46
2021/04/15 13:30:53;;;;;;;1.87;1.03;;;9.80;54.30;;;;;;5073406;28;20464;-48
2021/04/15 13:33:22;;;;;;;3.20;1.03;;;9.50;52.70;;;;;;5072644;28;20426;-48
2021/04/15 13:35:50;;;;;;;3.67;1.10;;;9.90;53.40;;;;;;5073277;28;20758;-47
2021/04/15 13:38:42;;;;;;;1.73;0.97;;;10.10;52.40;;;;;;5071854;28;20519;-48
2021/04/15 13:41:42;;;;;;;2.00;1.00;;;9.60;51.40;;;;;;5073375;28;20442;-49
2021/04/15 13:44:13;;;;;;;1.53;1.00;;;9.60;51.00;;;;;;5072698;28;20489;-47
2021/04/15 13:46:45;;;;;;;2.00;1.00;;;9.50;51.40;;;;;;5073390;28;20760;-48
2021/04/15 13:49:35;;;;;;;2.20;1.20;;;9.40;51.40;;;;;;5072480;28;20577;-47
2021/04/15 13:52:11;;;;;;;2.80;1.27;;;9.50;51.60;;;;;;5073473;28;20466;-49